Time;durP1;ratioP1;P1;durP2;ratioP2;P2;SDS_P1;SDS_P2;PMS_P1;PMS_P2;Temp;Humidity;BMP_temperature;BMP_pressure;BME280_temperature;BME280_humidity;BME280_pressure;Samples;Min_cycle;Max_cycle;Signal;HPM_P1;HPM_P2
2022/01/31 00:01:36;;;;;;;5.03;0.30;;;;;;;10.73;82.97;101391.75;7396368;19;20673;-66
2022/01/31 00:04:03;;;;;;;3.78;0.60;;;;;;;10.71;82.44;101391.09;7394293;19;20015;-68
2022/01/31 00:06:30;;;;;;;2.15;0.38;;;;;;;10.72;82.75;101398.00;7392363;19;20031;-67
2022/01/31 00:08:57;;;;;;;6.75;0.63;;;;;;;10.70;83.01;101389.41;7393581;19;20021;-68
2022/01/31 00:11:23;;;;;;;3.25;0.57;;;;;;;10.69;83.59;101391.22;7392100;19;20021;-67
2022/01/31 00:14:00;;;;;;;2.55;0.30;;;;;;;10.69;83.56;101393.03;7393041;19;20054;-67
2022/01/31 00:16:32;;;;;;;4.82;0.43;;;;;;;10.69;83.17;101408.81;7391489;19;20010;-65
2022/01/31 00:18:59;;;;;;;6.22;1.25;;;;;;;10.66;83.81;101411.72;7389880;19;20015;-67
2022/01/31 00:21:28;;;;;;;2.42;0.35;;;;;;;10.66;83.79;101411.72;7392392;19;20014;-66
2022/01/31 00:23:55;;;;;;;2.60;0.50;;;;;;;10.67;83.38;101401.03;7390442;19;20025;-66
2022/01/31 00:26:23;;;;;;;2.58;0.50;;;;;;;10.68;83.29;101404.50;7389856;19;20037;-68
2022/01/31 00:28:50;;;;;;;5.38;1.45;;;;;;;10.69;83.27;101396.47;7390049;19;20254;-67
2022/01/31 00:31:17;;;;;;;3.45;0.68;;;;;;;10.71;83.37;101415.59;7390671;19;20019;-67
2022/01/31 00:33:44;;;;;;;2.30;0.30;;;;;;;10.73;82.80;101415.44;7389675;19;20038;-67
2022/01/31 00:36:11;;;;;;;2.80;0.30;;;;;;;10.76;82.73;101414.34;7388093;19;20027;-66
2022/01/31 00:38:38;;;;;;;2.58;0.68;;;;;;;10.77;82.16;101423.91;7388417;19;20537;-66
2022/01/31 00:41:05;;;;;;;3.60;0.28;;;;;;;10.73;79.86;101423.34;7392986;19;20014;-65
2022/01/31 00:43:35;;;;;;;2.55;0.28;;;;;;;10.72;79.90;101417.25;7389902;19;20022;-65
2022/01/31 00:46:11;;;;;;;3.08;0.20;;;;;;;10.75;80.00;101415.31;7394188;19;20024;-67
2022/01/31 00:48:43;;;;;;;2.55;0.30;;;;;;;10.74;79.03;101409.22;7392245;19;20533;-66
2022/01/31 00:51:11;;;;;;;0.50;0.13;;;;;;;10.73;78.00;101418.91;7389312;19;20507;-66
2022/01/31 00:53:38;;;;;;;0.75;0.10;;;;;;;10.75;77.34;101425.84;7387442;19;20412;-67
2022/01/31 00:56:05;;;;;;;2.70;0.30;;;;;;;10.75;76.64;101408.25;7387752;19;20010;-67
2022/01/31 00:58:31;;;;;;;2.75;0.20;;;;;;;10.76;75.21;101423.09;7391176;19;20087;-67
2022/01/31 01:00:59;;;;;;;4.03;0.20;;;;;;;10.76;73.90;101399.41;7390770;19;20010;-67
2022/01/31 01:03:26;;;;;;;1.02;0.20;;;;;;;10.72;72.93;101385.66;7388028;19;20497;-66
2022/01/31 01:05:53;;;;;;;2.80;0.10;;;;;;;10.72;70.88;101409.34;7392679;19;20010;-65
2022/01/31 01:08:20;;;;;;;2.67;0.20;;;;;;;10.71;70.15;101407.72;7391141;19;20010;-65
2022/01/31 01:10:47;;;;;;;2.85;0.20;;;;;;;10.69;69.89;101393.84;7388484;19;20007;-65
2022/01/31 01:13:14;;;;;;;1.67;0.20;;;;;;;10.71;70.39;101365.59;7390373;19;20015;-66
2022/01/31 01:15:41;;;;;;;2.22;0.10;;;;;;;10.69;69.75;101364.91;7391804;19;20011;-65
2022/01/31 01:18:08;;;;;;;3.45;0.43;;;;;;;10.61;67.91;101349.00;7388224;19;20015;-66
2022/01/31 01:20:35;;;;;;;2.90;0.40;;;;;;;10.60;68.94;101365.75;7388764;19;20011;-66
2022/01/31 01:23:03;;;;;;;3.60;0.47;;;;;;;10.59;69.55;101392.19;7392327;19;20027;-66
2022/01/31 01:25:32;;;;;;;2.88;0.30;;;;;;;10.55;68.87;101383.75;7388138;19;20503;-68
2022/01/31 01:28:00;;;;;;;3.85;0.22;;;;;;;10.50;66.34;101390.41;7389847;19;20079;-67
2022/01/31 01:30:27;;;;;;;3.17;0.30;;;;;;;10.47;66.61;101401.19;7387302;19;20006;-67
2022/01/31 01:35:29;;;;;;;1.55;0.15;;;;;;;10.40;66.53;101350.09;7394423;19;20010;-67
2022/01/31 01:37:56;;;;;;;2.47;0.13;;;;;;;10.33;64.74;101341.94;7387120;19;20015;-66
2022/01/31 01:40:23;;;;;;;2.38;0.10;;;;;;;10.33;65.68;101322.69;7388684;19;20313;-66
2022/01/31 01:42:50;;;;;;;2.28;0.10;;;;;;;10.33;65.16;101335.84;7387497;19;20007;-66
2022/01/31 01:45:17;;;;;;;2.08;0.20;;;;;;;10.31;65.49;101349.13;7390096;19;20014;-66
2022/01/31 01:47:44;;;;;;;1.65;0.15;;;;;;;10.35;65.78;101354.94;7389809;19;20462;-66
2022/01/31 01:50:11;;;;;;;1.75;0.13;;;;;;;10.35;65.33;101371.56;7390429;19;20006;-68
2022/01/31 01:52:38;;;;;;;3.50;0.20;;;;;;;10.36;65.02;101375.88;7391506;19;20014;-67
2022/01/31 01:55:07;;;;;;;2.75;0.10;;;;;;;10.33;65.63;101384.00;7388360;19;20006;-67
2022/01/31 01:57:34;;;;;;;4.35;0.10;;;;;;;10.34;65.11;101398.84;7391456;19;20007;-67
2022/01/31 02:00:01;;;;;;;4.15;0.10;;;;;;;10.29;64.34;101398.41;7386881;19;20014;-68
2022/01/31 02:02:28;;;;;;;5.28;0.10;;;;;;;10.29;64.90;101388.72;7388048;19;20022;-66
2022/01/31 02:04:56;;;;;;;4.38;0.57;;;;;;;10.26;64.86;101410.03;7391405;19;20046;-67
2022/01/31 02:07:22;;;;;;;2.67;0.10;;;;;;;10.24;65.16;101417.22;7392547;19;20010;-65
2022/01/31 02:09:54;;;;;;;2.83;0.30;;;;;;;10.25;64.88;101431.22;7395241;19;20022;-66
2022/01/31 02:12:23;;;;;;;1.48;0.20;;;;;;;10.25;65.06;101420.69;7397741;19;20022;-65
2022/01/31 02:14:50;;;;;;;4.25;0.10;;;;;;;10.23;64.79;101417.34;7397152;19;20471;-66
2022/01/31 02:17:17;;;;;;;2.67;0.32;;;;;;;10.22;65.24;101413.91;7398645;19;20341;-66
2022/01/31 02:19:44;;;;;;;1.90;0.20;;;;;;;10.21;65.90;101424.53;7395785;19;20011;-66
2022/01/31 02:22:11;;;;;;;3.97;0.10;;;;;;;10.17;65.42;101410.84;7395773;19;20010;-67
2022/01/31 02:24:38;;;;;;;2.22;0.10;;;;;;;10.15;65.71;101427.69;7392783;19;20015;-66
2022/01/31 02:27:05;;;;;;;3.10;0.17;;;;;;;10.13;65.55;101433.09;7395181;19;20263;-65
2022/01/31 02:29:32;;;;;;;5.80;0.30;;;;;;;10.12;66.68;101435.84;7397682;19;20034;-66
2022/01/31 02:31:59;;;;;;;5.15;0.65;;;;;;;10.11;66.39;101431.53;7395031;19;20015;-66
2022/01/31 02:34:26;;;;;;;3.05;0.88;;;;;;;10.07;66.47;101433.63;7395777;19;20018;-67
2022/01/31 02:36:53;;;;;;;3.05;0.30;;;;;;;10.05;66.41;101434.75;7395172;19;20014;-68
2022/01/31 02:39:20;;;;;;;2.15;0.20;;;;;;;10.04;66.11;101440.94;7391060;19;20011;-66
2022/01/31 02:41:48;;;;;;;2.95;0.30;;;;;;;10.01;65.85;101435.94;7397810;19;20007;-65
2022/01/31 02:44:16;;;;;;;2.72;0.20;;;;;;;10.01;66.28;101441.19;7394718;19;20014;-66
2022/01/31 02:46:52;;;;;;;1.52;0.30;;;;;;;10.01;65.55;101436.78;7398163;19;20021;-66
2022/01/31 02:49:23;;;;;;;7.03;0.20;;;;;;;10.00;65.31;101426.41;7398113;19;20015;-66
2022/01/31 02:51:55;;;;;;;4.68;0.40;;;;;;;10.01;65.80;101444.66;7394507;19;20030;-68
2022/01/31 02:54:24;;;;;;;4.50;0.10;;;;;;;9.97;65.19;101424.88;7395890;19;20321;-66
2022/01/31 02:56:51;;;;;;;5.57;0.20;;;;;;;9.97;65.67;101429.28;7392787;19;20356;-66
2022/01/31 02:59:18;;;;;;;3.22;0.20;;;;;;;9.93;66.81;101438.41;7390791;19;20102;-66
2022/01/31 03:01:45;;;;;;;3.97;0.20;;;;;;;9.87;67.26;101438.00;7398360;19;20525;-66
2022/01/31 03:04:13;;;;;;;3.28;0.30;;;;;;;9.77;68.95;101426.63;7395653;19;20087;-66
2022/01/31 03:06:45;;;;;;;3.60;0.10;;;;;;;9.70;70.64;101437.81;7394622;19;20038;-66
2022/01/31 03:09:12;;;;;;;3.95;0.10;;;;;;;9.63;72.16;101461.13;7399099;19;20341;-66
2022/01/31 03:11:38;;;;;;;1.80;0.10;;;;;;;9.58;72.22;101483.50;7394266;19;20471;-68
2022/01/31 03:14:05;;;;;;;1.45;0.15;;;;;;;9.54;73.16;101461.09;7395889;19;20042;-66
2022/01/31 03:16:34;;;;;;;3.05;0.10;;;;;;;9.44;73.83;101453.16;7392740;19;20007;-66
2022/01/31 03:19:01;;;;;;;2.33;0.20;;;;;;;9.39;73.78;101450.09;7393176;19;20364;-66
2022/01/31 03:21:28;;;;;;;3.78;0.25;;;;;;;9.33;73.53;101459.31;7391585;19;20010;-66
2022/01/31 03:23:55;;;;;;;2.95;0.30;;;;;;;9.27;73.52;101456.38;7393944;19;20478;-66
2022/01/31 03:26:21;;;;;;;5.13;0.45;;;;;;;9.23;74.79;101445.28;7395406;19;20015;-66
2022/01/31 03:28:50;;;;;;;3.22;0.20;;;;;;;9.16;73.76;101444.13;7395016;19;20027;-66
2022/01/31 03:31:18;;;;;;;6.45;0.50;;;;;;;9.17;74.46;101430.03;7396656;19;20018;-66
2022/01/31 03:33:47;;;;;;;5.88;0.20;;;;;;;9.16;74.23;101436.25;7391679;19;20011;-65
2022/01/31 03:36:14;;;;;;;1.13;0.30;;;;;;;9.19;74.03;101419.44;7394615;19;20369;-66
2022/01/31 03:38:41;;;;;;;2.83;0.17;;;;;;;9.22;74.19;101427.03;7389851;19;20018;-66
2022/01/31 03:41:10;;;;;;;8.05;2.63;;;;;;;9.28;74.57;101402.88;7396495;19;20537;-66
2022/01/31 03:43:37;;;;;;;7.38;1.20;;;;;;;9.31;74.23;101400.00;7391424;19;20042;-66
2022/01/31 03:46:04;;;;;;;3.53;0.40;;;;;;;9.39;73.27;101415.94;7396849;19;20315;-67
2022/01/31 03:48:32;;;;;;;2.80;0.30;;;;;;;9.42;72.56;101424.38;7394177;19;20010;-66
2022/01/31 03:51:02;;;;;;;3.53;0.20;;;;;;;9.47;72.30;101434.50;7391856;19;20405;-66
2022/01/31 03:53:32;;;;;;;5.97;0.40;;;;;;;9.53;70.99;101438.41;7391740;19;20018;-65
2022/01/31 03:55:59;;;;;;;4.68;0.35;;;;;;;9.56;72.15;101441.59;7390514;19;20632;-68
2022/01/31 03:58:28;;;;;;;6.20;0.50;;;;;;;9.54;70.96;101445.31;7393093;19;20015;-68
2022/01/31 04:00:59;;;;;;;4.30;0.20;;;;;;;9.51;69.69;101453.44;7389305;19;20014;-68
2022/01/31 04:03:26;;;;;;;5.00;0.45;;;;;;;9.52;69.61;101445.44;7394772;19;20014;-66
2022/01/31 04:05:53;;;;;;;2.47;0.25;;;;;;;9.57;70.83;101435.38;7394215;19;20011;-65
2022/01/31 04:08:20;;;;;;;1.40;0.10;;;;;;;9.63;69.89;101440.13;7390607;19;20018;-68
2022/01/31 04:10:47;;;;;;;8.07;0.90;;;;;;;9.65;67.89;101440.78;7391466;19;20475;-66
2022/01/31 04:13:16;;;;;;;2.78;0.40;;;;;;;9.64;67.46;101452.28;7392410;19;20019;-66
2022/01/31 04:15:43;;;;;;;2.13;0.20;;;;;;;9.64;67.47;101451.47;7393536;19;20010;-66
2022/01/31 04:18:10;;;;;;;3.33;0.30;;;;;;;9.62;67.21;101446.31;7389359;19;20021;-68
2022/01/31 04:20:38;;;;;;;1.88;0.22;;;;;;;9.64;67.28;101439.16;7389896;19;20022;-68
2022/01/31 04:23:10;;;;;;;3.45;0.20;;;;;;;9.64;67.29;101426.03;7393671;19;20025;-67
2022/01/31 04:25:43;;;;;;;6.53;0.30;;;;;;;9.62;65.56;101435.81;7394881;19;20019;-66
2022/01/31 04:28:18;;;;;;;1.27;0.10;;;;;;;9.65;65.33;101440.00;7392954;19;20087;-66
2022/01/31 04:30:55;;;;;;;3.15;0.20;;;;;;;9.65;65.37;101434.75;7392121;19;20010;-67
2022/01/31 04:33:23;;;;;;;3.90;0.15;;;;;;;9.67;65.49;101436.25;7388976;19;20030;-66
2022/01/31 04:35:51;;;;;;;5.07;0.28;;;;;;;9.69;66.07;101431.72;7390066;19;20014;-67
2022/01/31 04:38:18;;;;;;;2.78;0.30;;;;;;;9.69;65.18;101426.47;7392012;19;20010;-68
2022/01/31 04:40:46;;;;;;;4.13;0.20;;;;;;;9.69;64.68;101430.88;7388662;19;20007;-67
2022/01/31 04:43:13;;;;;;;6.00;0.73;;;;;;;9.67;65.44;101427.53;7388489;19;20528;-65
2022/01/31 04:45:47;;;;;;;4.57;0.30;;;;;;;9.67;64.21;101423.13;7391746;19;20457;-66
2022/01/31 04:48:19;;;;;;;5.13;0.20;;;;;;;9.64;64.31;101425.19;7391224;19;20043;-66
2022/01/31 04:50:47;;;;;;;5.18;0.30;;;;;;;9.66;64.58;101425.88;7388496;19;20014;-69
2022/01/31 04:53:14;;;;;;;1.48;0.10;;;;;;;9.65;64.55;101409.25;7390578;19;20010;-70
2022/01/31 04:55:41;;;;;;;8.60;0.63;;;;;;;9.70;64.82;101411.53;7389795;19;20032;-70
2022/01/31 04:58:09;;;;;;;2.00;0.10;;;;;;;9.69;63.81;101425.63;7390939;19;20018;-67
2022/01/31 05:00:36;;;;;;;7.10;0.95;;;;;;;9.71;63.87;101434.19;7389766;19;20007;-69
2022/01/31 05:03:09;;;;;;;3.95;0.20;;;;;;;9.70;62.72;101440.44;7395304;19;20043;-70
2022/01/31 05:05:37;;;;;;;6.85;0.20;;;;;;;9.72;62.06;101444.56;7390003;19;20463;-70
2022/01/31 05:08:04;;;;;;;2.63;0.20;;;;;;;9.71;61.29;101456.03;7390471;19;20010;-69
2022/01/31 05:10:33;;;;;;;2.00;0.32;;;;;;;9.70;61.25;101464.88;7391113;19;20463;-70
2022/01/31 05:13:03;;;;;;;5.85;0.40;;;;;;;9.72;61.85;101498.91;7391974;19;20014;-69
2022/01/31 05:15:30;;;;;;;4.85;0.10;;;;;;;9.64;64.31;101520.59;7392920;19;20014;-68
2022/01/31 05:17:56;;;;;;;4.85;0.47;;;;;;;9.55;66.84;101512.66;7389953;19;20504;-67
2022/01/31 05:20:23;;;;;;;1.73;0.20;;;;;;;9.43;68.48;101517.16;7388513;19;20011;-67
2022/01/31 05:22:50;;;;;;;1.48;0.15;;;;;;;9.35;69.36;101501.19;7389445;19;20015;-66
2022/01/31 05:25:17;;;;;;;3.97;0.13;;;;;;;9.26;70.24;101501.94;7392419;19;20111;-67
2022/01/31 05:27:44;;;;;;;3.70;0.30;;;;;;;9.19;70.91;101503.44;7389475;19;20011;-65
2022/01/31 05:30:11;;;;;;;6.20;0.20;;;;;;;9.12;70.56;101489.13;7391241;19;20583;-66
2022/01/31 05:32:38;;;;;;;2.05;0.25;;;;;;;9.07;71.13;101486.91;7388269;19;20030;-67
2022/01/31 05:35:05;;;;;;;0.90;0.15;;;;;;;9.06;71.23;101468.66;7390210;19;20007;-67
2022/01/31 05:37:33;;;;;;;5.38;0.65;;;;;;;9.00;70.85;101462.94;7391931;19;20037;-67
2022/01/31 05:40:00;;;;;;;5.93;0.20;;;;;;;9.00;71.36;101447.19;7393292;19;20019;-65
2022/01/31 05:42:27;;;;;;;6.10;0.30;;;;;;;8.99;71.59;101453.41;7398020;19;20524;-65
2022/01/31 05:44:53;;;;;;;5.38;0.20;;;;;;;8.99;69.03;101449.94;7397501;19;20011;-67
2022/01/31 05:47:20;;;;;;;4.63;0.15;;;;;;;8.92;67.57;101443.56;7396092;19;20476;-66
2022/01/31 05:49:47;;;;;;;3.53;0.22;;;;;;;8.91;68.19;101440.09;7400385;19;20010;-67
2022/01/31 05:52:15;;;;;;;5.80;0.30;;;;;;;8.92;68.70;101441.75;7395174;19;20484;-68
2022/01/31 05:54:43;;;;;;;2.15;0.20;;;;;;;8.94;67.86;101439.81;7395630;19;20003;-66
2022/01/31 05:57:11;;;;;;;4.68;0.20;;;;;;;8.97;67.73;101457.13;7397376;19;20022;-65
2022/01/31 05:59:39;;;;;;;6.63;0.30;;;;;;;8.99;66.83;101460.44;7394396;19;20010;-67
2022/01/31 06:02:09;;;;;;;3.72;0.30;;;;;;;9.02;67.91;101447.06;7395123;19;20015;-67
2022/01/31 06:04:41;;;;;;;3.40;0.25;;;;;;;9.01;65.44;101469.03;7396400;19;20038;-66
2022/01/31 06:07:11;;;;;;;5.88;0.20;;;;;;;9.00;65.10;101462.94;7394170;19;20015;-67
2022/01/31 06:09:38;;;;;;;4.07;0.98;;;;;;;8.99;65.00;101477.03;7396433;19;20010;-66
2022/01/31 06:12:06;;;;;;;5.70;0.20;;;;;;;8.97;63.47;101472.88;7395042;19;20571;-66
2022/01/31 06:14:34;;;;;;;5.35;0.40;;;;;;;8.99;62.60;101463.06;7395214;19;20025;-65
2022/01/31 06:17:01;;;;;;;7.68;0.35;;;;;;;9.00;63.02;101468.19;7396914;19;20038;-66
2022/01/31 06:19:29;;;;;;;4.80;0.50;;;;;;;8.97;62.20;101492.09;7396619;19;20337;-67
2022/01/31 06:21:57;;;;;;;6.25;0.40;;;;;;;8.97;61.83;101507.81;7394600;19;20007;-66
2022/01/31 06:24:24;;;;;;;7.78;0.32;;;;;;;8.97;61.72;101502.56;7396200;19;20021;-67
2022/01/31 06:26:51;;;;;;;6.20;1.02;;;;;;;8.96;61.55;101484.31;7392802;19;20034;-66
2022/01/31 06:29:19;;;;;;;6.07;0.45;;;;;;;8.94;61.64;101497.56;7398159;19;20011;-68
2022/01/31 06:31:46;;;;;;;8.32;1.02;;;;;;;8.94;60.89;101512.47;7395736;19;20026;-69
2022/01/31 06:34:13;;;;;;;6.57;0.50;;;;;;;8.91;60.20;101503.06;7393734;19;20010;-71
2022/01/31 06:36:39;;;;;;;9.15;0.32;;;;;;;8.88;60.76;101503.34;7396629;19;20007;-66
2022/01/31 06:39:07;;;;;;;5.05;0.40;;;;;;;8.88;60.74;101513.84;7394834;19;20014;-66
2022/01/31 06:41:35;;;;;;;10.05;0.30;;;;;;;8.87;60.87;101509.53;7391678;19;20010;-67
2022/01/31 06:44:02;;;;;;;8.60;0.63;;;;;;;8.88;62.51;101526.94;7395067;19;20440;-66
2022/01/31 06:46:29;;;;;;;11.50;0.43;;;;;;;8.88;61.60;101526.13;7392823;19;20444;-66
2022/01/31 06:48:56;;;;;;;7.90;0.70;;;;;;;8.87;61.24;101538.41;7395716;19;20017;-66
2022/01/31 06:51:23;;;;;;;5.60;0.50;;;;;;;8.89;61.61;101552.22;7390901;19;20045;-66
2022/01/31 06:53:55;;;;;;;4.38;0.20;;;;;;;8.89;61.70;101546.97;7396577;19;20010;-68
2022/01/31 06:56:29;;;;;;;6.07;0.25;;;;;;;8.88;61.97;101560.22;7395048;19;20039;-66
2022/01/31 06:58:57;;;;;;;6.63;0.30;;;;;;;8.88;62.43;101560.22;7395160;19;20011;-68
2022/01/31 07:01:25;;;;;;;9.65;0.70;;;;;;;8.91;62.76;101563.44;7390916;19;20007;-67
2022/01/31 07:03:54;;;;;;;10.43;1.20;;;;;;;8.92;62.33;101566.88;7395394;19;20017;-66
2022/01/31 07:06:24;;;;;;;6.07;0.30;;;;;;;8.94;63.17;101567.56;7394915;19;20023;-66
2022/01/31 07:08:52;;;;;;;8.68;0.30;;;;;;;8.97;63.22;101564.72;7394046;19;20152;-67
2022/01/31 07:11:23;;;;;;;5.00;0.20;;;;;;;8.94;62.38;101573.66;7392690;19;20010;-66
2022/01/31 07:14:02;;;;;;;7.72;1.15;;;;;;;8.92;62.53;101580.84;7395089;19;20019;-66
2022/01/31 07:16:29;;;;;;;7.07;0.38;;;;;;;8.89;63.05;101575.00;7391679;19;20010;-67
2022/01/31 07:19:03;;;;;;;11.15;0.40;;;;;;;8.88;63.74;101581.22;7396786;19;20007;-66
2022/01/31 07:21:39;;;;;;;10.30;1.20;;;;;;;8.87;63.91;101587.41;7391371;19;20011;-66
2022/01/31 07:26:34;;;;;;;6.15;0.47;;;;;;;8.88;64.06;101618.78;7393984;19;20011;-67
2022/01/31 07:29:01;;;;;;;5.38;0.22;;;;;;;8.83;63.83;101615.69;7396065;19;20011;-66
2022/01/31 07:31:28;;;;;;;13.80;1.15;;;;;;;8.73;63.53;101625.25;7392236;19;20097;-66
2022/01/31 07:33:55;;;;;;;6.00;0.32;;;;;;;8.74;63.46;101642.63;7393696;19;20105;-66
2022/01/31 07:36:22;;;;;;;6.00;0.47;;;;;;;8.71;63.77;101668.28;7393858;19;20074;-68
2022/01/31 07:38:49;;;;;;;9.82;0.50;;;;;;;8.66;64.31;101660.78;7388564;19;20010;-67
2022/01/31 07:41:17;;;;;;;11.23;0.50;;;;;;;8.59;64.75;101662.22;7392164;19;20018;-66
2022/01/31 07:43:44;;;;;;;4.43;0.30;;;;;;;8.61;65.30;101657.69;7397668;19;20326;-67
2022/01/31 07:46:12;;;;;;;8.35;0.68;;;;;;;8.58;65.54;101655.31;7395709;19;20010;-67
2022/01/31 07:48:40;;;;;;;5.63;0.73;;;;;;;8.55;66.31;101645.88;7396846;19;20480;-70
2022/01/31 07:51:08;;;;;;;7.43;0.45;;;;;;;8.55;67.10;101643.25;7392999;19;20022;-67
2022/01/31 07:53:38;;;;;;;6.20;0.30;;;;;;;8.60;67.43;101642.91;7392303;19;20011;-67
2022/01/31 07:56:09;;;;;;;5.50;0.65;;;;;;;8.59;67.33;101628.09;7391649;19;20015;-66
2022/01/31 07:58:38;;;;;;;13.63;0.63;;;;;;;8.61;67.42;101626.22;7391960;19;20048;-66
2022/01/31 08:01:06;;;;;;;8.93;1.05;;;;;;;8.58;68.80;101642.19;7389767;19;20014;-68
2022/01/31 08:03:35;;;;;;;4.60;0.30;;;;;;;8.61;70.08;101643.72;7389871;19;20010;-67
2022/01/31 08:06:03;;;;;;;7.30;0.82;;;;;;;8.55;68.82;101642.41;7391227;19;20031;-67
2022/01/31 08:08:31;;;;;;;3.15;0.40;;;;;;;8.56;69.57;101668.53;7391175;19;20007;-67
2022/01/31 08:10:59;;;;;;;4.03;0.38;;;;;;;8.57;68.72;101679.88;7395506;19;20106;-68
2022/01/31 08:13:27;;;;;;;4.18;0.30;;;;;;;8.55;68.35;101677.34;7393509;19;20483;-67
2022/01/31 08:18:32;;;;;;;3.38;0.22;;;;;;;8.54;66.93;101698.44;7393427;19;20018;-67
2022/01/31 08:21:00;;;;;;;5.05;0.20;;;;;;;8.55;66.44;101710.63;7391928;19;20341;-67
2022/01/31 08:23:27;;;;;;;6.63;0.30;;;;;;;8.54;64.92;101712.41;7392605;19;20011;-67
2022/01/31 08:25:54;;;;;;;3.75;0.52;;;;;;;8.54;64.85;101724.66;7391694;19;20075;-67
2022/01/31 08:28:31;;;;;;;8.52;1.83;;;;;;;8.55;65.50;101705.38;7393452;19;20010;-67
2022/01/31 08:31:06;;;;;;;3.38;0.68;;;;;;;8.55;64.63;101719.31;7391736;19;20098;-66
2022/01/31 08:33:38;;;;;;;9.15;0.47;;;;;;;8.56;63.46;101726.25;7388985;19;20014;-68
2022/01/31 08:36:08;;;;;;;5.78;0.55;;;;;;;8.56;63.09;101734.09;7392743;19;20024;-67
2022/01/31 08:38:38;;;;;;;6.53;0.50;;;;;;;8.57;62.28;101729.69;7391214;19;20186;-67
2022/01/31 08:41:07;;;;;;;8.73;0.73;;;;;;;8.56;62.39;101735.91;7389217;19;20010;-68
2022/01/31 08:43:38;;;;;;;5.88;0.30;;;;;;;8.57;60.96;101754.16;7392298;19;20015;-68
2022/01/31 08:46:07;;;;;;;7.32;0.82;;;;;;;8.61;60.71;101778.34;7389432;19;20022;-66
2022/01/31 08:48:35;;;;;;;7.97;0.50;;;;;;;8.63;60.72;101775.63;7391867;19;20006;-66
2022/01/31 08:51:06;;;;;;;7.68;0.93;;;;;;;8.63;61.24;101752.00;7389025;19;20022;-66
2022/01/31 08:53:34;;;;;;;7.72;0.95;;;;;;;8.65;59.57;101755.31;7389270;19;20108;-68
2022/01/31 08:56:12;;;;;;;2.17;0.30;;;;;;;8.65;59.39;101753.53;7391581;19;20047;-68
2022/01/31 08:58:45;;;;;;;5.85;0.88;;;;;;;8.65;59.59;101756.16;7388944;19;20531;-66
2022/01/31 09:01:17;;;;;;;11.15;2.72;;;;;;;8.68;59.64;101774.31;7390909;19;20403;-67
2022/01/31 09:06:23;;;;;;;8.23;1.13;;;;;;;8.69;58.62;101802.19;7390716;19;20007;-67
2022/01/31 09:08:50;;;;;;;7.85;0.52;;;;;;;8.73;62.79;101803.66;7389642;19;20560;-67
2022/01/31 09:11:18;;;;;;;13.35;0.40;;;;;;;8.80;60.15;101781.22;7387362;19;20044;-66
2022/01/31 09:13:46;;;;;;;9.55;0.90;;;;;;;8.86;59.66;101788.63;7390802;19;20018;-68
2022/01/31 09:16:13;;;;;;;6.30;1.45;;;;;;;8.91;58.14;101810.13;7393303;19;20504;-66
2022/01/31 09:18:40;;;;;;;6.68;0.43;;;;;;;8.92;57.04;101805.69;7388745;19;20523;-67
2022/01/31 09:21:08;;;;;;;5.30;0.30;;;;;;;8.94;55.19;101828.22;7388931;19;20019;-67
2022/01/31 09:23:37;;;;;;;12.05;0.52;;;;;;;8.95;54.51;101805.44;7388571;19;20016;-67
2022/01/31 09:26:05;;;;;;;9.88;2.50;;;;;;;9.00;53.49;101812.03;7390164;19;20030;-67
2022/01/31 09:28:32;;;;;;;9.45;0.40;;;;;;;9.02;53.55;101841.63;7391101;19;20021;-67
2022/01/31 09:31:00;;;;;;;4.88;0.30;;;;;;;9.07;51.27;101848.31;7389760;19;20021;-67
2022/01/31 09:33:28;;;;;;;6.50;0.98;;;;;;;9.09;51.20;101849.03;7393755;19;20383;-67
2022/01/31 09:35:55;;;;;;;4.15;0.68;;;;;;;9.09;51.58;101863.00;7393465;19;20380;-67
2022/01/31 09:38:24;;;;;;;6.45;0.40;;;;;;;9.10;51.24;101846.28;7388385;19;20074;-67
2022/01/31 09:40:53;;;;;;;2.47;0.20;;;;;;;9.11;50.67;101842.69;7387165;19;20009;-68
2022/01/31 09:43:40;;;;;;;3.60;0.20;;;;;;;9.14;50.64;101844.28;7387399;19;20409;-67
2022/01/31 09:48:37;;;;;;;6.35;0.30;;;;;;;9.20;50.73;101833.25;7379178;19;20018;-69
2022/01/31 09:51:17;;;;;;;4.80;0.30;;;;;;;9.24;50.93;101832.94;7384658;19;20482;-70
2022/01/31 09:53:50;;;;;;;8.38;0.35;;;;;;;9.23;50.29;101838.31;7385603;19;20078;-66
2022/01/31 09:56:21;;;;;;;1.67;0.20;;;;;;;9.24;49.60;101840.81;7389753;19;20021;-66
2022/01/31 09:58:51;;;;;;;5.15;0.20;;;;;;;9.26;49.52;101836.25;7385964;19;20362;-68
2022/01/31 10:01:24;;;;;;;4.90;0.30;;;;;;;9.28;48.59;101844.88;7388826;19;20416;-66
2022/01/31 10:03:54;;;;;;;5.07;0.20;;;;;;;9.31;48.59;101842.00;7390173;19;20023;-67
2022/01/31 10:06:25;;;;;;;2.40;0.22;;;;;;;9.33;49.12;101850.59;7386052;19;20018;-67
2022/01/31 10:09:11;;;;;;;5.05;0.20;;;;;;;9.39;47.58;101865.03;7389889;19;20017;-67
2022/01/31 10:11:48;;;;;;;5.45;0.30;;;;;;;9.37;47.61;101846.78;7386474;19;20078;-68
2022/01/31 10:16:56;;;;;;;5.78;0.70;;;;;;;9.44;48.54;101861.09;7389552;19;20006;-67
2022/01/31 10:19:49;;;;;;;5.65;0.30;;;;;;;9.47;47.71;101869.69;7387465;19;20006;-68
2022/01/31 10:22:22;;;;;;;4.38;0.17;;;;;;;9.47;47.43;101880.19;7389882;19;20019;-68
2022/01/31 10:24:53;;;;;;;2.05;0.20;;;;;;;9.50;46.95;101882.59;7385401;19;20015;-66
2022/01/31 10:27:23;;;;;;;1.63;0.20;;;;;;;9.51;47.41;101892.13;7392814;19;20432;-67
2022/01/31 10:29:53;;;;;;;3.70;0.10;;;;;;;9.55;48.42;101896.22;7394526;19;20090;-67
2022/01/31 10:32:29;;;;;;;4.75;0.60;;;;;;;9.59;47.81;101916.88;7390284;19;20401;-66
2022/01/31 10:34:59;;;;;;;3.00;0.20;;;;;;;9.62;46.91;101929.75;7395889;19;20018;-68
2022/01/31 10:37:29;;;;;;;3.15;0.20;;;;;;;9.62;47.71;101932.38;7394610;19;20031;-65
2022/01/31 10:53:05;;;;;;;6.65;0.30;;;;;;;9.57;45.13;101921.41;7394407;19;20025;-66
2022/01/31 10:55:32;;;;;;;11.52;0.47;;;;;;;9.59;45.38;101934.41;7392071;19;20010;-66
2022/01/31 10:58:03;;;;;;;6.55;0.75;;;;;;;9.61;43.83;101950.88;7394569;19;20011;-67
2022/01/31 11:00:33;;;;;;;3.55;0.17;;;;;;;9.62;43.35;101934.16;7394267;19;20019;-67
2022/01/31 11:03:20;;;;;;;2.67;0.35;;;;;;;9.63;45.39;101927.97;7395395;19;20087;-66
2022/01/31 11:05:49;;;;;;;2.92;0.10;;;;;;;9.65;46.56;101931.31;7393590;19;20014;-67
2022/01/31 11:08:17;;;;;;;4.43;0.47;;;;;;;9.66;43.92;101928.56;7395926;19;20036;-67
2022/01/31 11:10:44;;;;;;;5.55;0.30;;;;;;;9.67;44.01;101935.50;7393787;19;20036;-68
2022/01/31 11:13:12;;;;;;;2.38;0.10;;;;;;;9.64;43.80;101919.13;7391080;19;20047;-68
2022/01/31 11:15:40;;;;;;;3.38;0.20;;;;;;;9.65;44.04;101916.38;7394910;19;20531;-67
2022/01/31 11:18:07;;;;;;;5.32;0.20;;;;;;;9.69;43.80;101928.34;7393784;19;20019;-68
2022/01/31 11:20:39;;;;;;;4.07;0.47;;;;;;;9.69;43.97;101930.97;7395587;19;20031;-67
2022/01/31 11:23:09;;;;;;;5.43;0.50;;;;;;;9.72;44.15;101938.59;7391339;19;20014;-66
2022/01/31 11:25:41;;;;;;;4.07;0.30;;;;;;;9.75;43.92;101934.91;7392237;19;20016;-66
2022/01/31 11:28:13;;;;;;;5.07;0.55;;;;;;;9.72;43.62;101951.72;7394868;19;20010;-68
2022/01/31 11:30:41;;;;;;;4.03;0.20;;;;;;;9.72;43.29;101990.31;7394897;19;20015;-66
2022/01/31 11:33:11;;;;;;;5.07;0.20;;;;;;;9.74;43.28;101981.38;7390567;19;20014;-66
2022/01/31 11:35:38;;;;;;;1.65;0.20;;;;;;;9.75;43.83;101983.03;7393960;19;20022;-68
2022/01/31 11:38:05;;;;;;;2.53;0.20;;;;;;;9.71;43.52;101983.38;7388003;19;20045;-66
2022/01/31 11:40:32;;;;;;;2.38;0.30;;;;;;;9.71;44.03;101983.38;7393921;19;20017;-66
2022/01/31 11:43:02;;;;;;;5.95;0.20;;;;;;;9.74;43.53;101988.41;7387822;19;20010;-68
2022/01/31 11:45:34;;;;;;;6.32;0.40;;;;;;;9.72;44.52;102000.81;7392832;19;20034;-68
2022/01/31 11:48:09;;;;;;;5.45;0.47;;;;;;;9.73;44.29;102011.22;7394105;19;20011;-67
2022/01/31 11:50:46;;;;;;;4.60;0.22;;;;;;;9.70;44.67;101995.69;7393333;19;20070;-66
2022/01/31 11:53:14;;;;;;;4.28;0.20;;;;;;;9.73;45.01;101998.09;7390352;19;20086;-68
2022/01/31 11:55:42;;;;;;;4.93;0.20;;;;;;;9.74;45.03;101997.13;7394111;19;20551;-66
2022/01/31 11:58:15;;;;;;;4.40;0.20;;;;;;;9.78;45.27;102001.19;7391807;19;20010;-68
2022/01/31 12:00:42;;;;;;;;;;;;;;;9.82;44.02;102015.78;7388755;19;20039;-67
2022/01/31 12:03:14;;;;;;;3.80;0.20;;;;;;;9.82;43.92;102012.31;7390864;19;19923;-65
2022/01/31 12:05:43;;;;;;;1.75;0.20;;;;;;;9.82;45.13;102020.19;7389682;19;20009;-66
2022/01/31 12:08:15;;;;;;;1.95;0.30;;;;;;;9.82;44.97;102020.19;7390899;19;20070;-68